Airfield :
LOGIN :

Register | Disclaimer

   EN    FR    IT 

 










Legend :    VFR   Marginal VFR   IFR   Intensive IFR   Very Intensive IFR
Visi :
Ceiling :
>= 8 km
>= 3000ft
5 to 8 km
1000 to 3000 ft
1500m to 5 km
500 to 1000 ft
800 to 1500m
200 to 500 ft
< 800m
< 200 ft
Symbols :   Thunderstorms  Fog  Heavy snow  Heavy precipitations  Wind > 20 kt
SIGMETs :     Misc.  Thunderstorms  Icing  Turbulence  Mountain Waves  Volcanic Ashes







- Airport Elevation : 142 ft
- IATA code : ALC


LEAL - Alicante

CURRENT METAR :
  • 271300Z 08016KT 050V110 CAVOK 27/15 Q1017 NOSIG

EXPIRED METARs :
  • 271230Z 08017KT CAVOK 24/17 Q1017 NOSIG
  • 271200Z 09019KT CAVOK 25/18 Q1017 NOSIG
  • 271130Z 09015KT 070V130 CAVOK 24/18 Q1017 NOSIG
  • 271100Z 10016KT 070V140 CAVOK 24/18 Q1017 NOSIG
  • 271030Z 10013KT 070V140 CAVOK 25/18 Q1017 NOSIG

TAF TAF LEAL
Valid from the 27 at 12:00 until the 28 at 12:00 UTC


271100Z 2712/2812 06010KT 9999 FEW025 TX31/2712Z TN19/2806Z
TEMPO 2712/2718 08015G25KT
BECMG 2719/2721 05008KT
BECMG 2808/2810 06018KT
No reported NOTAMs for that airfield.



MET'MAP, your aeronautical weather chart ! - Copyright ORBIFLY December 2007 - Disclaimer

ORBIFLY MET'MAP TEAM :

Programming & Development : Alexandra Zaïnal
Concept & Development : Baudouin d'Aumeries
Co-Development & Prog : Marc-Olivier Méhu
Technical & hardware support : Manuel Goepfert

Contact : metmap@orbifly.com




SOURCES & CREDITS :

   NOAA